Time;durP1;ratioP1;P1;durP2;ratioP2;P2;SDS_P1;SDS_P2;PMS_P1;PMS_P2;Temp;Humidity;BMP_temperature;BMP_pressure;BME280_temperature;BME280_humidity;BME280_pressure;Samples;Min_cycle;Max_cycle;Signal;HPM_P1;HPM_P2
2023/11/23 00:01:42;;;;;;;9.53;3.67;;;;;5.00;97600.00;;;;5071744;28;20219;-72
2023/11/23 00:04:31;;;;;;;5.43;2.17;;;;;5.20;97605.00;;;;5075981;28;20679;-71
2023/11/23 00:07:20;;;;;;;7.10;2.77;;;;;5.20;97601.00;;;;5059528;28;20223;-71
2023/11/23 00:10:10;;;;;;;10.65;4.00;;;;;5.00;97596.00;;;;5074410;28;20398;-71
2023/11/23 00:12:59;;;;;;;6.37;2.57;;;;;5.30;97601.00;;;;5075550;28;20257;-71
2023/11/23 00:15:49;;;;;;;10.80;4.43;;;;;5.20;97587.00;;;;5057978;28;20200;-72
2023/11/23 00:18:39;;;;;;;5.27;2.27;;;;;5.40;97588.00;;;;5078956;28;20207;-71
2023/11/23 00:21:28;;;;;;;5.17;2.23;;;;;5.20;97584.00;;;;5058529;28;20595;-72
2023/11/23 00:24:17;;;;;;;6.23;2.33;;;;;5.10;97589.00;;;;5056425;28;20226;-71
2023/11/23 00:27:06;;;;;;;6.77;2.73;;;;;4.70;97581.00;;;;5071227;28;20199;-72
2023/11/23 00:29:55;;;;;;;22.25;14.80;;;;;4.70;97572.00;;;;5069763;28;20809;-71
2023/11/23 00:32:46;;;;;;;9.43;3.77;;;;;5.00;97587.00;;;;5067338;28;20227;-72
2023/11/23 00:35:35;;;;;;;8.37;3.37;;;;;5.00;97576.00;;;;5064110;28;20227;-70
2023/11/23 00:38:24;;;;;;;7.87;3.23;;;;;5.20;97574.00;;;;5066425;28;20570;-72
2023/11/23 00:41:13;;;;;;;10.20;4.07;;;;;5.20;97575.00;;;;5081964;28;20680;-71
2023/11/23 00:44:04;;;;;;;5.73;2.53;;;;;5.20;97578.00;;;;5071496;28;20677;-72
2023/11/23 00:46:53;;;;;;;9.93;3.65;;;;;5.00;97586.00;;;;5072740;28;20465;-72
2023/11/23 00:49:44;;;;;;;7.67;3.43;;;;;5.40;97584.00;;;;5072155;28;20214;-71
2023/11/23 00:52:34;;;;;;;3.60;1.80;;;;;5.40;97580.00;;;;5062878;28;20224;-71
2023/11/23 00:55:23;;;;;;;4.83;2.33;;;;;5.50;97597.00;;;;5072402;28;20203;-71
2023/11/23 00:58:12;;;;;;;5.30;2.43;;;;;5.50;97603.00;;;;5066673;28;20214;-71
2023/11/23 01:01:01;;;;;;;4.10;2.03;;;;;5.50;97611.00;;;;5066850;28;20212;-71
2023/11/23 01:03:50;;;;;;;5.10;2.63;;;;;5.60;97603.00;;;;5070332;28;20203;-71
2023/11/23 01:06:41;;;;;;;5.73;2.87;;;;;5.60;97604.00;;;;5070187;28;20200;-71
2023/11/23 01:09:30;;;;;;;3.93;2.10;;;;;5.60;97590.00;;;;5063370;28;20239;-71
2023/11/23 01:12:19;;;;;;;3.30;1.77;;;;;5.60;97600.00;;;;5060011;28;20227;-71
2023/11/23 01:15:11;;;;;;;4.00;2.10;;;;;5.60;97596.00;;;;5065786;28;20224;-72
2023/11/23 01:18:01;;;;;;;3.77;2.07;;;;;5.50;97583.00;;;;5078902;28;20203;-71
2023/11/23 01:20:51;;;;;;;5.97;3.13;;;;;5.50;97583.00;;;;5076194;28;20253;-71
2023/11/23 01:23:41;;;;;;;6.67;3.57;;;;;5.60;97578.00;;;;5066963;28;20784;-71
2023/11/23 01:26:31;;;;;;;4.37;2.27;;;;;5.70;97574.00;;;;5070315;28;20677;-70
2023/11/23 01:29:20;;;;;;;3.63;1.93;;;;;5.70;97575.00;;;;5067299;28;20227;-71
2023/11/23 01:32:09;;;;;;;3.23;1.90;;;;;5.60;97571.00;;;;5080738;28;20600;-71
2023/11/23 01:34:58;;;;;;;4.40;2.50;;;;;5.40;97560.00;;;;5082551;28;20200;-70
2023/11/23 01:37:47;;;;;;;5.43;3.17;;;;;5.40;97567.00;;;;5070037;28;20204;-71
2023/11/23 01:40:38;;;;;;;6.23;3.27;;;;;5.30;97576.00;;;;5080304;28;20244;-70
2023/11/23 01:43:27;;;;;;;2.93;1.70;;;;;5.10;97582.00;;;;5065839;28;20220;-71
2023/11/23 01:46:16;;;;;;;5.60;2.87;;;;;5.30;97571.00;;;;5062296;28;20208;-72
2023/11/23 01:49:05;;;;;;;4.30;2.37;;;;;5.40;97583.00;;;;5076529;28;20200;-71
2023/11/23 01:51:55;;;;;;;1.97;1.17;;;;;5.40;97570.00;;;;5077203;28;20708;-69
2023/11/23 01:54:44;;;;;;;4.83;2.83;;;;;5.50;97576.00;;;;5073731;28;20214;-71
2023/11/23 01:57:38;;;;;;;4.27;2.50;;;;;5.50;97572.00;;;;5064358;28;20200;-71
2023/11/23 02:00:27;;;;;;;2.53;1.57;;;;;5.50;97566.00;;;;5075377;28;20210;-71
2023/11/23 02:03:16;;;;;;;2.63;1.67;;;;;5.60;97556.00;;;;5069890;28;20218;-71
2023/11/23 02:06:05;;;;;;;3.53;2.07;;;;;5.60;97557.00;;;;5070031;28;20203;-69
2023/11/23 02:08:54;;;;;;;3.13;1.90;;;;;5.60;97557.00;;;;5068169;28;20199;-71
2023/11/23 02:11:44;;;;;;;5.30;3.03;;;;;5.40;97549.00;;;;5076540;28;20216;-71
2023/11/23 02:14:35;;;;;;;3.07;2.00;;;;;5.20;97536.00;;;;5072327;28;20210;-71
2023/11/23 02:17:24;;;;;;;2.30;1.50;;;;;5.30;97544.00;;;;5067814;28;20692;-72
2023/11/23 02:20:14;;;;;;;2.73;1.70;;;;;5.40;97551.00;;;;5063736;28;20196;-71
2023/11/23 02:23:03;;;;;;;3.03;1.93;;;;;5.30;97547.00;;;;5080207;28;20224;-71
2023/11/23 02:25:53;;;;;;;3.73;2.37;;;;;5.20;97533.00;;;;5078824;28;20203;-71
2023/11/23 02:28:42;;;;;;;3.40;2.10;;;;;5.10;97538.00;;;;5073001;28;20692;-71
2023/11/23 02:31:33;;;;;;;3.07;1.90;;;;;4.90;97535.00;;;;5057461;28;20219;-71
2023/11/23 02:34:22;;;;;;;2.80;1.77;;;;;4.90;97530.00;;;;5057335;28;20212;-71
2023/11/23 02:37:11;;;;;;;2.77;1.70;;;;;5.00;97532.00;;;;5076579;28;20222;-71
2023/11/23 02:40:00;;;;;;;4.73;2.83;;;;;5.20;97531.00;;;;5071460;28;20196;-71
2023/11/23 02:42:50;;;;;;;5.00;3.10;;;;;5.30;97530.00;;;;5064471;28;20228;-71
2023/11/23 02:45:41;;;;;;;4.90;2.83;;;;;5.40;97532.00;;;;5076151;28;20653;-70
2023/11/23 02:48:30;;;;;;;2.67;1.77;;;;;5.40;97532.00;;;;5077057;28;20200;-71
2023/11/23 02:51:20;;;;;;;3.53;2.23;;;;;5.40;97533.00;;;;5056341;28;20228;-70
2023/11/23 02:54:09;;;;;;;2.80;1.87;;;;;5.40;97533.00;;;;5074992;28;20195;-72
2023/11/23 02:56:58;;;;;;;2.97;2.03;;;;;5.50;97520.00;;;;5068696;28;20200;-71
2023/11/23 02:59:49;;;;;;;4.40;2.77;;;;;5.50;97521.00;;;;5070009;28;20430;-71
2023/11/23 03:02:38;;;;;;;4.60;2.83;;;;;5.50;97515.00;;;;5072966;28;20220;-71
2023/11/23 03:05:27;;;;;;;2.53;1.67;;;;;5.50;97519.00;;;;5072978;28;20204;-71
2023/11/23 03:08:16;;;;;;;3.27;2.17;;;;;5.50;97505.00;;;;5063227;28;20207;-71
2023/11/23 03:11:05;;;;;;;5.50;2.28;;;;;5.20;97500.00;;;;5073335;28;20896;-71
2023/11/23 03:13:57;;;;;;;3.80;2.23;;;;;5.50;97510.00;;;;5075862;28;20199;-71
2023/11/23 03:16:48;;;;;;;3.37;2.17;;;;;5.70;97517.00;;;;5075546;28;20211;-70
2023/11/23 03:19:37;;;;;;;3.13;2.03;;;;;5.70;97510.00;;;;5071706;28;20208;-71
2023/11/23 03:22:26;;;;;;;1.70;1.23;;;;;5.70;97511.00;;;;5057859;28;20346;-70
2023/11/23 03:25:15;;;;;;;3.13;1.97;;;;;5.60;97513.00;;;;5070792;28;20207;-72
2023/11/23 03:28:06;;;;;;;2.67;1.87;;;;;5.60;97510.00;;;;5069173;28;20695;-70
2023/11/23 03:30:55;;;;;;;2.03;1.50;;;;;5.60;97526.00;;;;5076779;28;20223;-71
2023/11/23 03:33:45;;;;;;;3.97;2.47;;;;;5.70;97518.00;;;;5071478;28;20206;-71
2023/11/23 03:36:34;;;;;;;2.70;1.80;;;;;5.70;97509.00;;;;5070113;28;20210;-70
2023/11/23 03:39:23;;;;;;;2.77;1.70;;;;;5.70;97503.00;;;;5074002;28;20199;-71
2023/11/23 03:42:13;;;;;;;3.20;1.90;;;;;5.70;97513.00;;;;5044168;28;20612;-71
2023/11/23 03:45:02;;;;;;;3.30;2.10;;;;;5.80;97512.00;;;;5080339;28;20203;-71
2023/11/23 03:47:52;;;;;;;2.77;1.73;;;;;5.70;97518.00;;;;5077001;28;20208;-70
2023/11/23 03:50:42;;;;;;;5.40;3.17;;;;;5.70;97527.00;;;;5079539;28;20235;-71
2023/11/23 03:53:32;;;;;;;2.20;1.57;;;;;5.80;97525.00;;;;5069164;28;20218;-71
2023/11/23 03:56:21;;;;;;;4.50;2.77;;;;;5.70;97532.00;;;;5076218;28;20210;-71
2023/11/23 03:59:11;;;;;;;3.07;2.00;;;;;5.70;97530.00;;;;5069581;28;20204;-71
2023/11/23 04:02:00;;;;;;;2.73;1.80;;;;;5.70;97532.00;;;;5077963;28;20223;-71
2023/11/23 04:04:49;;;;;;;3.73;2.60;;;;;5.60;97535.00;;;;5070399;28;20215;-70
2023/11/23 04:07:39;;;;;;;4.43;2.70;;;;;5.60;97522.00;;;;5072731;28;20207;-71
2023/11/23 04:10:28;;;;;;;5.47;2.20;;;;;5.30;97517.00;;;;5069138;28;20406;-71
2023/11/23 04:13:17;;;;;;;3.13;1.87;;;;;5.70;97525.00;;;;5069617;28;20210;-71
2023/11/23 04:16:08;;;;;;;3.90;2.37;;;;;5.70;97519.00;;;;5080303;28;20208;-71
2023/11/23 04:18:58;;;;;;;3.07;1.87;;;;;5.70;97528.00;;;;5071158;28;20224;-71
2023/11/23 04:21:47;;;;;;;2.93;2.00;;;;;5.80;97527.00;;;;5075568;28;20235;-69
2023/11/23 04:24:40;;;;;;;2.77;1.83;;;;;5.70;97526.00;;;;5075838;28;20211;-71
2023/11/23 04:27:31;;;;;;;2.50;1.67;;;;;5.70;97535.00;;;;5078744;28;20203;-70
2023/11/23 04:30:20;;;;;;;2.27;1.53;;;;;5.70;97529.00;;;;5067872;28;20192;-71
2023/11/23 04:33:09;;;;;;;4.03;2.50;;;;;5.30;97524.00;;;;5067246;28;20202;-69
2023/11/23 04:35:58;;;;;;;1.57;1.17;;;;;5.40;97528.00;;;;5073913;28;20200;-70
2023/11/23 04:38:47;;;;;;;6.13;2.50;;;;;5.10;97518.00;;;;5074113;28;20394;-69
2023/11/23 04:41:38;;;;;;;3.40;1.97;;;;;5.20;97518.00;;;;5073861;28;20228;-70
2023/11/23 04:44:27;;;;;;;2.80;1.77;;;;;5.20;97511.00;;;;5062860;28;20222;-70
2023/11/23 04:47:16;;;;;;;2.27;1.60;;;;;5.40;97511.00;;;;5072270;28;20204;-70
2023/11/23 04:50:06;;;;;;;3.40;2.13;;;;;5.40;97520.00;;;;5068799;28;20211;-70
2023/11/23 04:52:57;;;;;;;3.10;2.03;;;;;5.40;97505.00;;;;5071641;28;20224;-71
2023/11/23 04:55:46;;;;;;;3.67;2.40;;;;;5.40;97502.00;;;;5071346;28;20203;-69
2023/11/23 04:58:36;;;;;;;2.73;1.73;;;;;5.40;97500.00;;;;5070793;28;20204;-70
2023/11/23 05:01:25;;;;;;;3.63;2.10;;;;;5.40;97509.00;;;;5066183;28;20219;-70
2023/11/23 05:04:14;;;;;;;2.73;1.90;;;;;5.30;97517.00;;;;5053922;28;20207;-71
2023/11/23 05:07:05;;;;;;;2.27;1.50;;;;;5.20;97517.00;;;;5070355;28;20722;-71
2023/11/23 05:09:54;;;;;;;3.07;2.20;;;;;5.30;97513.00;;;;5071271;28;20199;-70
2023/11/23 05:12:43;;;;;;;3.17;2.03;;;;;5.30;97519.00;;;;5075706;28;20309;-71
2023/11/23 05:15:33;;;;;;;6.90;2.70;;;;;4.80;97519.00;;;;5063945;28;20394;-70
2023/11/23 05:18:22;;;;;;;5.63;3.07;;;;;5.10;97517.00;;;;5063191;28;20794;-69
2023/11/23 05:21:11;;;;;;;2.67;1.67;;;;;5.10;97504.00;;;;5067491;28;20609;-71
2023/11/23 05:24:00;;;;;;;2.63;1.77;;;;;4.90;97509.00;;;;5072065;28;20682;-70
2023/11/23 05:26:49;;;;;;;4.27;2.67;;;;;4.80;97512.00;;;;5072408;28;20257;-71
2023/11/23 05:29:38;;;;;;;3.53;2.17;;;;;4.70;97520.00;;;;5062008;28;20200;-70
2023/11/23 05:32:29;;;;;;;2.60;1.70;;;;;4.70;97518.00;;;;5060564;28;20233;-71
2023/11/23 05:35:18;;;;;;;2.33;1.60;;;;;4.60;97521.00;;;;5062468;28;20219;-71
2023/11/23 05:38:07;;;;;;;2.67;1.90;;;;;4.50;97511.00;;;;5069507;28;20204;-70
2023/11/23 05:40:56;;;;;;;3.20;2.00;;;;;4.50;97530.00;;;;5073936;28;20207;-71
2023/11/23 05:43:45;;;;;;;3.87;2.80;;;;;4.30;97524.00;;;;5064859;28;20204;-70
2023/11/23 05:46:34;;;;;;;2.57;1.70;;;;;4.20;97527.00;;;;5065934;28;20704;-69
2023/11/23 05:49:25;;;;;;;2.43;1.63;;;;;4.10;97521.00;;;;5071742;28;20200;-71
2023/11/23 05:52:14;;;;;;;6.13;2.50;;;;;3.70;97515.00;;;;5074146;28;20400;-71
2023/11/23 05:55:03;;;;;;;4.67;2.57;;;;;3.90;97519.00;;;;5078423;28;20211;-71
2023/11/23 05:57:52;;;;;;;5.67;3.60;;;;;3.90;97505.00;;;;5079383;28;20598;-71
2023/11/23 06:00:43;;;;;;;6.20;3.70;;;;;3.80;97526.00;;;;5074917;28;20691;-71
2023/11/23 06:03:32;;;;;;;2.37;1.70;;;;;3.90;97516.00;;;;5068082;28;20208;-72
2023/11/23 06:06:23;;;;;;;4.60;2.93;;;;;3.70;97520.00;;;;5059370;28;20462;-70
2023/11/23 06:09:12;;;;;;;4.17;2.43;;;;;3.60;97525.00;;;;5068652;28;20453;-72
2023/11/23 06:12:01;;;;;;;3.27;2.07;;;;;3.30;97512.00;;;;5078817;28;20477;-70
2023/11/23 06:14:50;;;;;;;13.05;5.03;;;;;3.10;97510.00;;;;5071463;28;20777;-72
2023/11/23 06:17:39;;;;;;;6.72;2.65;;;;;3.10;97503.00;;;;5061408;28;20761;-70
2023/11/23 06:20:29;;;;;;;3.00;1.73;;;;;3.40;97511.00;;;;5074413;28;20671;-72
2023/11/23 06:23:20;;;;;;;2.70;1.70;;;;;3.20;97495.00;;;;5077071;28;20192;-72
2023/11/23 06:26:10;;;;;;;3.43;1.93;;;;;3.30;97509.00;;;;5072924;28;20518;-72
2023/11/23 06:28:59;;;;;;;8.80;3.47;;;;;3.10;97504.00;;;;5067371;28;20450;-72
2023/11/23 06:31:50;;;;;;;9.53;3.67;;;;;3.00;97488.00;;;;5069015;28;20447;-72
2023/11/23 06:34:39;;;;;;;6.93;2.77;;;;;3.00;97476.00;;;;5076993;28;20940;-72
2023/11/23 06:37:28;;;;;;;5.10;2.10;;;;;3.10;97479.00;;;;5061152;28;20864;-72
2023/11/23 06:40:18;;;;;;;9.10;3.50;;;;;3.20;97483.00;;;;5066923;28;20922;-71
2023/11/23 06:43:07;;;;;;;8.70;3.38;;;;;3.20;97494.00;;;;5072247;28;20432;-70
2023/11/23 06:45:57;;;;;;;6.07;3.20;;;;;3.20;97495.00;;;;5076959;28;22008;-72
2023/11/23 06:48:46;;;;;;;5.63;3.37;;;;;3.50;97493.00;;;;5060477;28;20211;-71
2023/11/23 06:51:35;;;;;;;2.73;1.67;;;;;3.30;97481.00;;;;5061071;28;20223;-72
2023/11/23 06:54:24;;;;;;;3.00;1.80;;;;;3.20;97478.00;;;;5067504;28;20207;-72
2023/11/23 06:57:15;;;;;;;2.00;1.33;;;;;3.20;97475.00;;;;5059521;28;20215;-72
2023/11/23 07:00:11;;;;;;;19.43;9.70;;;;;3.30;97499.00;;;;5065886;28;20212;-71
2023/11/23 07:03:02;;;;;;;4.13;2.53;;;;;3.20;97476.00;;;;5067660;28;20727;-72
2023/11/23 07:05:51;;;;;;;5.87;3.50;;;;;2.90;97479.00;;;;5061794;28;20450;-72
2023/11/23 07:08:40;;;;;;;5.93;3.43;;;;;2.90;97484.00;;;;5062427;28;20427;-70
2023/11/23 07:11:29;;;;;;;3.20;2.00;;;;;3.20;97491.00;;;;5052913;28;20454;-72
2023/11/23 07:14:20;;;;;;;4.33;2.40;;;;;3.30;97493.00;;;;5060725;28;20441;-71
2023/11/23 07:17:09;;;;;;;3.20;1.83;;;;;3.30;97483.00;;;;5070927;28;20870;-72
2023/11/23 07:19:58;;;;;;;7.40;3.83;;;;;3.80;97500.00;;;;5070811;28;21220;-71
2023/11/23 07:22:47;;;;;;;7.50;3.93;;;;;3.90;97495.00;;;;5066124;28;20224;-71
2023/11/23 07:25:42;;;;;;;3.27;2.03;;;;;4.20;97496.00;;;;5061720;28;20420;-72
2023/11/23 07:28:31;;;;;;;3.13;2.00;;;;;4.40;97491.00;;;;5064759;28;20442;-72
2023/11/23 07:31:22;;;;;;;3.63;2.30;;;;;4.30;97489.00;;;;5069334;28;20981;-71
2023/11/23 07:34:11;;;;;;;3.47;2.07;;;;;4.60;97486.00;;;;5074664;28;20418;-72
2023/11/23 07:37:00;;;;;;;3.47;2.00;;;;;4.70;97476.00;;;;5081691;28;20927;-72
2023/11/23 07:39:49;;;;;;;5.67;3.37;;;;;4.80;97483.00;;;;5069834;28;20431;-72
2023/11/23 07:42:39;;;;;;;2.73;1.73;;;;;3.50;97459.00;;;;5065131;28;20826;-71
2023/11/23 07:45:29;;;;;;;2.57;1.67;;;;;3.80;97468.00;;;;5071654;28;20419;-71
2023/11/23 07:48:20;;;;;;;4.97;2.73;;;;;3.90;97471.00;;;;5059407;28;20275;-72
2023/11/23 07:51:09;;;;;;;3.97;2.20;;;;;4.00;97470.00;;;;5077120;22;20244;-89
2023/11/23 07:53:58;;;;;;;3.53;2.00;;;;;3.20;97446.00;;;;5067670;28;20223;-89
2023/11/23 07:56:47;;;;;;;6.20;3.60;;;;;3.50;97451.00;;;;5065641;28;20562;-89
2023/11/23 07:59:37;;;;;;;2.07;1.20;;;;;3.20;97436.00;;;;5068797;28;20419;-91
2023/11/23 08:02:26;;;;;;;2.97;1.83;;;;;2.80;97436.00;;;;5068824;28;21033;-90
2023/11/23 08:05:17;;;;;;;2.97;1.80;;;;;3.20;97435.00;;;;5065103;28;20429;-89
2023/11/23 08:08:07;;;;;;;2.83;1.70;;;;;3.30;97435.00;;;;5064263;28;20537;-89
2023/11/23 08:10:56;;;;;;;4.07;2.73;;;;;3.30;97410.00;;;;5074610;28;20451;-89
2023/11/23 08:13:49;;;;;;;5.37;3.10;;;;;3.60;97412.00;;;;5068672;28;20466;-89
2023/11/23 08:16:55;;;;;;;4.97;3.07;;;;;3.70;97421.00;;;;5063232;28;20446;-89
2023/11/23 08:19:46;;;;;;;3.47;2.23;;;;;3.90;97421.00;;;;5063849;28;20555;-89
2023/11/23 08:22:38;;;;;;;2.73;1.87;;;;;3.70;97425.00;;;;5058181;28;20446;-89
2023/11/23 08:25:28;;;;;;;3.37;1.97;;;;;4.10;97426.00;;;;5065996;28;20520;-89
2023/11/23 08:28:17;;;;;;;4.97;2.80;;;;;4.00;97424.00;;;;5064281;28;20844;-88
2023/11/23 08:31:08;;;;;;;2.23;1.50;;;;;4.10;97422.00;;;;5069051;28;20461;-91
2023/11/23 08:33:57;;;;;;;3.17;2.23;;;;;4.00;97400.00;;;;5070466;28;20649;-90
2023/11/23 08:36:46;;;;;;;6.60;2.70;;;;;4.20;97415.00;;;;5068171;28;20467;-90
2023/11/23 08:39:49;;;;;;;6.78;2.47;;;;;4.60;97415.00;;;;5061015;28;20392;-89
2023/11/23 08:42:39;;;;;;;8.45;3.10;;;;;4.10;97405.00;;;;5064790;28;20392;-88
2023/11/23 08:45:28;;;;;;;4.90;1.83;;;;;3.40;97399.00;;;;5064472;28;20401;-88
2023/11/23 08:48:22;;;;;;;8.63;3.25;;;;;4.20;97405.00;;;;5067778;28;20521;-88
2023/11/23 08:51:46;;;;;;;11.70;4.22;;;;;4.60;97404.00;;;;5066553;28;20485;-89
2023/11/23 08:59:02;;;;;;;12.05;4.32;;;;;5.10;97400.00;;;;4948615;28;20445;-89
2023/11/23 09:01:52;;;;;;;12.60;4.55;;;;;5.30;97395.00;;;;4984961;28;20405;-89
2023/11/23 09:04:42;;;;;;;4.07;1.97;;;;;5.30;97398.00;;;;4978484;28;20937;-88
2023/11/23 09:07:32;;;;;;;3.37;1.87;;;;;5.40;97391.00;;;;4984707;28;20207;-89
2023/11/23 09:10:24;;;;;;;4.10;1.93;;;;;5.70;97390.00;;;;4986538;28;20715;-89
2023/11/23 09:13:15;;;;;;;4.50;2.20;;;;;5.90;97383.00;;;;5043863;28;20232;-89
2023/11/23 09:16:06;;;;;;;4.27;2.20;;;;;5.40;97369.00;;;;5066673;28;20204;-89
2023/11/23 09:18:56;;;;;;;5.90;3.17;;;;;6.00;97375.00;;;;5063250;28;20662;-88
2023/11/23 09:22:27;;;;;;;;;;;;;;;;;;;;;
2023/11/23 09:28:47;;;;;;;4.77;2.67;;;;;7.60;97370.00;;;;5073531;28;20210;-88
2023/11/23 09:32:01;;;;;;;4.07;2.37;;;;;7.80;97368.00;;;;5062455;28;20362;-89
2023/11/23 09:35:06;;;;;;;3.70;2.17;;;;;7.50;97363.00;;;;5084554;28;20227;-89
2023/11/23 09:37:57;;;;;;;5.37;3.00;;;;;6.80;97351.00;;;;5085171;28;20196;-89
2023/11/23 09:40:50;;;;;;;5.57;3.07;;;;;7.10;97344.00;;;;5071094;28;20597;-89
2023/11/23 09:44:05;;;;;;;3.80;2.00;;;;;8.00;97347.00;;;;5071237;28;20211;-88
2023/11/23 09:47:44;;;;;;;4.13;2.30;;;;;8.40;97334.00;;;;5071269;28;20199;-90
2023/11/23 09:50:47;;;;;;;3.83;2.37;;;;;8.40;97334.00;;;;5071618;28;20296;-89
2023/11/23 09:53:37;;;;;;;2.17;1.40;;;;;7.50;97323.00;;;;5068631;28;20235;-88
2023/11/23 09:56:29;;;;;;;3.23;1.90;;;;;8.10;97331.00;;;;5071263;28;20204;-89
2023/11/23 09:59:19;;;;;;;1.30;1.03;;;;;8.20;97322.00;;;;5066895;28;20200;-89
2023/11/23 10:02:09;;;;;;;3.20;1.77;;;;;8.60;97321.00;;;;5070716;28;20228;-89
2023/11/23 10:04:58;;;;;;;3.87;2.30;;;;;8.60;97309.00;;;;5072050;28;20247;-89
2023/11/23 10:07:49;;;;;;;4.73;2.73;;;;;8.50;97305.00;;;;5067223;28;20209;-89
2023/11/23 10:10:39;;;;;;;2.03;1.20;;;;;9.30;97306.00;;;;5070606;28;20220;-89
2023/11/23 10:13:29;;;;;;;4.63;2.17;;;;;9.50;97311.00;;;;5070385;28;20281;-90
2023/11/23 10:16:19;;;;;;;5.80;2.93;;;;;10.30;97299.00;;;;5072404;28;20203;-90
2023/11/23 10:19:08;;;;;;;2.43;1.13;;;;;11.90;97298.00;;;;5071583;28;20222;-89
2023/11/23 10:21:59;;;;;;;8.07;3.63;;;;;13.40;97292.00;;;;5070003;28;20223;-90
2023/11/23 10:24:48;;;;;;;10.27;4.20;;;;;13.50;97285.00;;;;5069625;28;20223;-89
2023/11/23 10:27:38;;;;;;;6.00;2.50;;;;;12.40;97274.00;;;;5068594;28;20204;-89
2023/11/23 10:30:29;;;;;;;5.07;2.07;;;;;13.40;97277.00;;;;5069310;28;20235;-89
2023/11/23 10:33:26;;;;;;;5.00;2.07;;;;;14.50;97287.00;;;;5075813;28;20196;-90
2023/11/23 10:36:16;;;;;;;5.80;2.37;;;;;15.00;97283.00;;;;5076429;28;20207;-90
2023/11/23 10:39:09;;;;;;;4.87;2.00;;;;;15.60;97283.00;;;;5068650;28;20218;-89
2023/11/23 10:42:00;;;;;;;8.93;3.43;;;;;15.90;97274.00;;;;5067332;28;20638;-89
2023/11/23 10:44:49;;;;;;;11.07;4.13;;;;;16.20;97275.00;;;;5072795;28;20237;-90
2023/11/23 10:47:41;;;;;;;4.03;1.60;;;;;16.00;97271.00;;;;5075267;28;20210;-91
2023/11/23 10:50:31;;;;;;;7.73;2.77;;;;;15.50;97260.00;;;;5064737;28;20215;-89
2023/11/23 10:53:21;;;;;;;6.03;2.37;;;;;15.80;97255.00;;;;5062276;28;20208;-90
2023/11/23 10:56:16;;;;;;;6.53;2.47;;;;;16.40;97255.00;;;;5064037;28;20196;-90
2023/11/23 10:59:08;;;;;;;6.97;2.67;;;;;16.40;97259.00;;;;5071680;28;20211;-89
2023/11/23 11:01:58;;;;;;;9.13;3.33;;;;;16.30;97240.00;;;;5068186;28;20216;-89
2023/11/23 11:04:49;;;;;;;8.60;3.23;;;;;15.60;97239.00;;;;5073180;28;20223;-88
2023/11/23 11:08:09;;;;;;;5.80;2.23;;;;;16.10;97228.00;;;;5072089;28;20203;-88
2023/11/23 11:11:13;;;;;;;6.97;2.60;;;;;16.40;97230.00;;;;5068296;28;20260;-89
2023/11/23 11:14:03;;;;;;;8.93;3.20;;;;;15.80;97216.00;;;;5068787;28;20706;-88
2023/11/23 11:17:04;;;;;;;12.20;4.43;;;;;15.80;97207.00;;;;5068682;28;20567;-90
2023/11/23 11:19:55;;;;;;;16.40;6.13;;;;;16.30;97208.00;;;;5069474;28;20273;-88
2023/11/23 11:22:44;;;;;;;9.07;3.37;;;;;16.20;97192.00;;;;5069533;28;20234;-90
2023/11/23 11:25:40;;;;;;;5.17;1.97;;;;;16.50;97193.00;;;;5073446;28;20650;-89
2023/11/23 11:28:29;;;;;;;6.30;2.27;;;;;15.70;97190.00;;;;5070829;28;20210;-89
2023/11/23 11:31:19;;;;;;;9.10;3.20;;;;;16.20;97186.00;;;;5068004;28;20277;-89
2023/11/23 11:34:19;;;;;;;8.13;2.87;;;;;16.00;97179.00;;;;5070895;28;20274;-89
2023/11/23 11:37:10;;;;;;;3.50;1.33;;;;;16.60;97182.00;;;;5072289;28;20260;-88
2023/11/23 11:40:01;;;;;;;13.73;4.63;;;;;15.80;97172.00;;;;5076216;28;20704;-89
2023/11/23 11:42:50;;;;;;;12.27;4.27;;;;;16.00;97183.00;;;;5067573;28;20589;-89
2023/11/23 11:45:40;;;;;;;6.40;2.27;;;;;16.80;97182.00;;;;5077889;28;20231;-89
2023/11/23 11:48:30;;;;;;;6.30;2.30;;;;;16.80;97169.00;;;;5067950;28;20204;-90
2023/11/23 11:51:19;;;;;;;10.60;3.70;;;;;16.90;97162.00;;;;5068501;28;20235;-89
2023/11/23 11:54:10;;;;;;;8.30;2.93;;;;;17.40;97172.00;;;;5064044;28;20222;-89
2023/11/23 11:57:02;;;;;;;18.30;5.70;;;;;17.70;97162.00;;;;5070199;28;20215;-89
2023/11/23 11:59:53;;;;;;;8.30;3.27;;;;;17.30;97154.00;;;;5070560;28;20211;-89
2023/11/23 12:02:42;;;;;;;10.30;4.50;;;;;16.90;97129.00;;;;5070587;28;20619;-89
2023/11/23 12:05:32;;;;;;;5.47;5.13;;;;;17.30;97128.00;;;;5064978;28;20220;-90
2023/11/23 12:08:21;;;;;;;13.07;7.67;;;;;16.70;97120.00;;;;5061115;28;20205;-89
2023/11/23 12:11:23;;;;;;;19.23;12.87;;;;;16.80;97114.00;;;;5062191;28;20220;-90
2023/11/23 12:14:13;;;;;;;24.17;21.97;;;;;17.40;97099.00;;;;5065915;28;20620;-88
2023/11/23 12:17:10;;;;;;;9.17;3.17;;;;;17.80;97104.00;;;;5068724;28;20509;-89
2023/11/23 12:19:59;;;;;;;28.80;9.07;;;;;18.60;97097.00;;;;5067636;28;20223;-89
2023/11/23 12:22:49;;;;;;;18.27;9.97;;;;;18.80;97101.00;;;;5060408;28;20432;-89
2023/11/23 12:25:38;;;;;;;35.23;32.63;;;;;18.40;97099.00;;;;5066437;28;20692;-89
2023/11/23 12:28:29;;;;;;;65.60;60.57;;;;;18.00;97103.00;;;;5063764;28;20668;-89
2023/11/23 12:31:21;;;;;;;11.30;4.13;;;;;17.90;97092.00;;;;5068098;28;20215;-89
2023/11/23 12:34:10;;;;;;;12.00;4.57;;;;;18.00;97090.00;;;;5067750;28;20196;-89
2023/11/23 12:37:00;;;;;;;17.27;6.33;;;;;18.20;97074.00;;;;5067712;28;20204;-89
2023/11/23 12:39:50;;;;;;;19.83;7.43;;;;;18.10;97078.00;;;;5065477;28;20211;-90
2023/11/23 12:42:40;;;;;;;13.27;8.03;;;;;19.20;97072.00;;;;5060905;28;20584;-89
2023/11/23 12:45:31;;;;;;;19.27;17.73;;;;;19.20;97076.00;;;;5063355;28;20280;-89
2023/11/23 12:48:21;;;;;;;32.17;29.20;;;;;19.20;97078.00;;;;5061465;28;20562;-89
2023/11/23 12:51:12;;;;;;;42.10;39.47;;;;;19.30;97067.00;;;;5070239;28;20228;-89
2023/11/23 12:54:03;;;;;;;59.07;55.37;;;;;19.30;97068.00;;;;5068799;28;20208;-89
2023/11/23 12:56:53;;;;;;;72.47;67.30;;;;;17.20;97064.00;;;;5070030;28;20250;-88
2023/11/23 12:59:42;;;;;;;93.63;89.13;;;;;16.40;97052.00;;;;5067758;28;20204;-89
2023/11/23 13:02:34;;;;;;;138.60;131.20;;;;;16.60;97042.00;;;;5069369;28;20229;-90
2023/11/23 13:05:23;;;;;;;13.23;9.53;;;;;15.30;97046.00;;;;5068978;28;20574;-89
2023/11/23 13:08:14;;;;;;;17.73;14.50;;;;;16.70;97049.00;;;;5061878;28;20207;-88
2023/11/23 13:11:04;;;;;;;21.20;19.03;;;;;18.20;97052.00;;;;5071496;28;20223;-89
2023/11/23 13:13:53;;;;;;;21.77;18.87;;;;;18.60;97043.00;;;;5069745;28;20217;-88
2023/11/23 13:16:44;;;;;;;30.03;28.00;;;;;19.10;97046.00;;;;5069823;28;20213;-90
2023/11/23 13:19:35;;;;;;;73.97;69.97;;;;;19.50;97044.00;;;;5068012;28;20359;-90
2023/11/23 13:22:25;;;;;;;254.73;240.53;;;;;20.00;97051.00;;;;5069984;28;20288;-90
2023/11/23 13:25:16;;;;;;;86.40;82.40;;;;;17.00;97030.00;;;;5072205;28;20231;-88
2023/11/23 13:28:06;;;;;;;110.10;103.40;;;;;17.00;97029.00;;;;5071699;27;20204;-88
2023/11/23 13:30:56;;;;;;;20.47;8.77;;;;;17.40;97033.00;;;;5067708;28;20220;-89
2023/11/23 13:34:28;;;;;;;10.83;4.33;;;;;17.80;97028.00;;;;5072546;28;20665;-88
2023/11/23 13:37:19;;;;;;;9.70;3.80;;;;;17.80;97031.00;;;;5065205;28;20199;-88
2023/11/23 13:40:10;;;;;;;12.33;4.47;;;;;18.50;97019.00;;;;5071041;28;20210;-89
2023/11/23 13:42:59;;;;;;;12.17;4.43;;;;;18.30;97013.00;;;;5070417;28;20208;-89
2023/11/23 13:45:49;;;;;;;12.47;4.77;;;;;19.30;97010.00;;;;5069652;28;20226;-89
2023/11/23 13:48:39;;;;;;;12.13;4.50;;;;;17.30;96999.00;;;;5069490;28;20200;-89
2023/11/23 13:51:28;;;;;;;8.33;2.90;;;;;16.80;96998.00;;;;5062298;28;20235;-88
2023/11/23 13:54:20;;;;;;;17.50;5.73;;;;;17.10;96990.00;;;;5063103;28;20410;-89
2023/11/23 13:57:10;;;;;;;19.13;6.37;;;;;18.60;96997.00;;;;5065083;28;20257;-90
2023/11/23 14:00:04;;;;;;;22.43;7.40;;;;;19.00;97001.00;;;;5066939;28;20651;-90
2023/11/23 14:02:54;;;;;;;17.43;5.97;;;;;19.60;96999.00;;;;5068117;28;20204;-90
2023/11/23 14:05:43;;;;;;;8.27;3.07;;;;;17.80;96981.00;;;;5067358;28;20676;-93
2023/11/23 14:08:32;;;;;;;8.63;2.97;;;;;15.00;96969.00;;;;5069925;28;20354;-91
2023/11/23 14:11:24;;;;;;;10.30;3.60;;;;;15.10;96976.00;;;;5067004;28;20223;-91
2023/11/23 14:14:15;;;;;;;8.73;3.07;;;;;16.20;96979.00;;;;5065899;28;20208;-90
2023/11/23 14:17:04;;;;;;;11.57;3.90;;;;;17.20;96974.00;;;;5070346;28;20204;-90
2023/11/23 14:19:54;;;;;;;11.70;3.97;;;;;16.60;96959.00;;;;5068061;28;20202;-90
2023/11/23 14:22:45;;;;;;;6.73;2.47;;;;;15.70;96956.00;;;;5068826;28;20223;-91
2023/11/23 14:25:34;;;;;;;7.57;2.77;;;;;15.40;96965.00;;;;5066396;28;20224;-91
2023/11/23 14:28:25;;;;;;;11.63;4.13;;;;;13.20;96945.00;;;;5068158;28;20196;-90
2023/11/23 14:31:18;;;;;;;9.40;3.23;;;;;12.60;96970.00;;;;5070424;28;20247;-91